sensor_id;sensor_type;location;lat;lon;timestamp;pressure;altitude;pressure_sealevel;temperature;humidity
63395;BME280;49531;-34.520;150.798;2023-07-31T00:00:19;101287.06;;;21.22;36.37
63395;BME280;49531;-34.520;150.798;2023-07-31T00:02:46;101292.00;;;21.25;36.36
63395;BME280;49531;-34.520;150.798;2023-07-31T00:05:13;101284.16;;;21.28;36.31
63395;BME280;49531;-34.520;150.798;2023-07-31T00:07:40;101279.06;;;21.32;36.06
63395;BME280;49531;-34.520;150.798;2023-07-31T00:10:07;101273.44;;;21.39;35.95
63395;BME280;49531;-34.520;150.798;2023-07-31T00:12:34;101263.47;;;21.44;35.88
63395;BME280;49531;-34.520;150.798;2023-07-31T00:15:02;101274.41;;;21.49;35.76
63395;BME280;49531;-34.520;150.798;2023-07-31T00:17:30;101261.94;;;21.53;35.63
63395;BME280;49531;-34.520;150.798;2023-07-31T00:19:57;101259.53;;;21.57;35.56
63395;BME280;49531;-34.520;150.798;2023-07-31T00:22:24;101257.94;;;21.61;35.52
63395;BME280;49531;-34.520;150.798;2023-07-31T00:24:51;101267.22;;;21.65;35.41
63395;BME280;49531;-34.520;150.798;2023-07-31T00:27:18;101265.38;;;21.71;35.36
63395;BME280;49531;-34.520;150.798;2023-07-31T00:29:46;101262.16;;;21.74;35.09
63395;BME280;49531;-34.520;150.798;2023-07-31T00:32:13;101264.38;;;21.77;34.95
63395;BME280;49531;-34.520;150.798;2023-07-31T00:34:40;101257.09;;;21.82;35.04
63395;BME280;49531;-34.520;150.798;2023-07-31T00:37:07;101255.44;;;21.81;35.32
63395;BME280;49531;-34.520;150.798;2023-07-31T00:39:35;101257.78;;;21.73;34.62
63395;BME280;49531;-34.520;150.798;2023-07-31T00:42:02;101252.16;;;21.79;32.95
63395;BME280;49531;-34.520;150.798;2023-07-31T00:44:30;101253.22;;;21.78;33.12
63395;BME280;49531;-34.520;150.798;2023-07-31T00:46:57;101249.94;;;21.76;33.68
63395;BME280;49531;-34.520;150.798;2023-07-31T00:49:26;101263.84;;;21.80;34.12
63395;BME280;49531;-34.520;150.798;2023-07-31T00:51:53;101271.25;;;21.84;33.95
63395;BME280;49531;-34.520;150.798;2023-07-31T00:54:23;101262.63;;;21.92;33.81
63395;BME280;49531;-34.520;150.798;2023-07-31T00:56:51;101254.47;;;21.92;33.93
63395;BME280;49531;-34.520;150.798;2023-07-31T00:59:19;101260.50;;;22.00;34.03
63395;BME280;49531;-34.520;150.798;2023-07-31T01:01:47;101254.84;;;22.01;34.05
63395;BME280;49531;-34.520;150.798;2023-07-31T01:04:14;101265.53;;;22.08;33.86
63395;BME280;49531;-34.520;150.798;2023-07-31T01:06:56;101258.75;;;22.10;33.91
63395;BME280;49531;-34.520;150.798;2023-07-31T01:09:42;101259.00;;;22.09;33.76
63395;BME280;49531;-34.520;150.798;2023-07-31T01:12:15;101251.41;;;22.11;33.92
63395;BME280;49531;-34.520;150.798;2023-07-31T01:15:03;101248.16;;;22.14;34.06
63395;BME280;49531;-34.520;150.798;2023-07-31T01:17:31;101238.94;;;22.15;34.07
63395;BME280;49531;-34.520;150.798;2023-07-31T01:20:02;101238.72;;;22.21;33.85
63395;BME280;49531;-34.520;150.798;2023-07-31T01:28:23;101232.50;;;22.26;33.89
63395;BME280;49531;-34.520;150.798;2023-07-31T01:30:53;101218.13;;;22.31;33.72
63395;BME280;49531;-34.520;150.798;2023-07-31T01:33:22;101210.72;;;22.26;33.49
63395;BME280;49531;-34.520;150.798;2023-07-31T01:35:50;101214.06;;;22.33;33.88
63395;BME280;49531;-34.520;150.798;2023-07-31T01:38:21;101209.44;;;22.34;33.60
63395;BME280;49531;-34.520;150.798;2023-07-31T01:40:53;101211.91;;;22.35;33.68
63395;BME280;49531;-34.520;150.798;2023-07-31T01:43:20;101213.53;;;22.36;33.23
63395;BME280;49531;-34.520;150.798;2023-07-31T01:45:47;101205.38;;;22.36;33.26
63395;BME280;49531;-34.520;150.798;2023-07-31T01:48:14;101199.41;;;22.39;33.12
63395;BME280;49531;-34.520;150.798;2023-07-31T01:50:41;101191.25;;;22.39;32.83
63395;BME280;49531;-34.520;150.798;2023-07-31T01:53:09;101200.50;;;22.43;33.07
63395;BME280;49531;-34.520;150.798;2023-07-31T01:55:36;101204.56;;;22.41;32.99
63395;BME280;49531;-34.520;150.798;2023-07-31T01:58:03;101196.97;;;22.43;33.22
63395;BME280;49531;-34.520;150.798;2023-07-31T02:00:30;101188.28;;;22.46;33.10
63395;BME280;49531;-34.520;150.798;2023-07-31T02:02:57;101189.09;;;22.46;33.20
63395;BME280;49531;-34.520;150.798;2023-07-31T02:05:24;101180.94;;;22.46;33.23
63395;BME280;49531;-34.520;150.798;2023-07-31T02:07:51;101169.75;;;22.43;33.22
63395;BME280;49531;-34.520;150.798;2023-07-31T02:10:18;101166.75;;;22.44;32.99
63395;BME280;49531;-34.520;150.798;2023-07-31T02:12:45;101162.97;;;22.50;32.23
63395;BME280;49531;-34.520;150.798;2023-07-31T02:15:12;101162.47;;;22.53;31.53
63395;BME280;49531;-34.520;150.798;2023-07-31T02:17:39;101154.31;;;22.58;31.66
63395;BME280;49531;-34.520;150.798;2023-07-31T02:20:07;101162.47;;;22.53;31.50
63395;BME280;49531;-34.520;150.798;2023-07-31T02:22:34;101146.16;;;22.58;31.21
63395;BME280;49531;-34.520;150.798;2023-07-31T02:25:01;101141.00;;;22.62;31.04
63395;BME280;49531;-34.520;150.798;2023-07-31T02:27:28;101136.41;;;22.68;30.93
63395;BME280;49531;-34.520;150.798;2023-07-31T02:29:55;101123.34;;;22.70;30.88
63395;BME280;49531;-34.520;150.798;2023-07-31T02:32:25;101121.44;;;22.70;30.25
63395;BME280;49531;-34.520;150.798;2023-07-31T02:34:52;101119.53;;;22.66;30.61
63395;BME280;49531;-34.520;150.798;2023-07-31T02:37:19;101115.72;;;22.67;30.70
63395;BME280;49531;-34.520;150.798;2023-07-31T02:39:46;101108.09;;;22.69;30.24
63395;BME280;49531;-34.520;150.798;2023-07-31T02:42:14;101108.09;;;22.69;29.95
63395;BME280;49531;-34.520;150.798;2023-07-31T02:44:41;101101.63;;;22.80;29.67
63395;BME280;49531;-34.520;150.798;2023-07-31T02:47:09;101093.19;;;22.81;30.02
63395;BME280;49531;-34.520;150.798;2023-07-31T02:49:36;101096.72;;;22.82;29.37
63395;BME280;49531;-34.520;150.798;2023-07-31T02:52:03;101094.00;;;22.82;28.96
63395;BME280;49531;-34.520;150.798;2023-07-31T02:54:31;101091.56;;;22.85;29.33
63395;BME280;49531;-34.520;150.798;2023-07-31T02:56:58;101094.56;;;22.89;29.12
63395;BME280;49531;-34.520;150.798;2023-07-31T02:59:25;101086.97;;;22.96;29.30
63395;BME280;49531;-34.520;150.798;2023-07-31T03:01:52;101073.34;;;22.96;29.24
63395;BME280;49531;-34.520;150.798;2023-07-31T03:04:19;101077.19;;;23.00;29.00
63395;BME280;49531;-34.520;150.798;2023-07-31T03:06:46;101067.94;;;23.11;28.84
63395;BME280;49531;-34.520;150.798;2023-07-31T03:09:13;101067.38;;;23.04;28.78
63395;BME280;49531;-34.520;150.798;2023-07-31T03:11:41;101061.38;;;23.02;28.72
63395;BME280;49531;-34.520;150.798;2023-07-31T03:14:08;101065.47;;;23.05;28.25
63395;BME280;49531;-34.520;150.798;2023-07-31T03:16:35;101052.41;;;23.12;28.61
63395;BME280;49531;-34.520;150.798;2023-07-31T03:19:02;101042.59;;;23.11;28.80
63395;BME280;49531;-34.520;150.798;2023-07-31T03:21:29;101049.97;;;23.15;28.30
63395;BME280;49531;-34.520;150.798;2023-07-31T03:23:56;101043.16;;;23.18;27.85
63395;BME280;49531;-34.520;150.798;2023-07-31T03:26:23;101045.06;;;23.17;27.89
63395;BME280;49531;-34.520;150.798;2023-07-31T03:28:50;101044.50;;;23.20;27.88
63395;BME280;49531;-34.520;150.798;2023-07-31T03:31:17;101037.16;;;23.21;27.44
63395;BME280;49531;-34.520;150.798;2023-07-31T03:33:44;101043.97;;;23.23;27.60
63395;BME280;49531;-34.520;150.798;2023-07-31T03:36:11;101034.44;;;23.21;26.72
63395;BME280;49531;-34.520;150.798;2023-07-31T03:38:38;101031.44;;;23.27;26.64
63395;BME280;49531;-34.520;150.798;2023-07-31T03:41:09;101035.53;;;23.25;26.67
63395;BME280;49531;-34.520;150.798;2023-07-31T03:43:37;101039.06;;;23.25;27.05
63395;BME280;49531;-34.520;150.798;2023-07-31T03:46:04;101042.59;;;23.26;27.07
63395;BME280;49531;-34.520;150.798;2023-07-31T03:48:32;101046.44;;;23.30;27.10
63395;BME280;49531;-34.520;150.798;2023-07-31T03:50:59;101044.25;;;23.32;27.23
63395;BME280;49531;-34.520;150.798;2023-07-31T03:53:26;101043.72;;;23.30;27.28
63395;BME280;49531;-34.520;150.798;2023-07-31T03:55:53;101041.53;;;23.32;26.86
63395;BME280;49531;-34.520;150.798;2023-07-31T03:58:20;101040.16;;;23.35;26.79
63395;BME280;49531;-34.520;150.798;2023-07-31T04:00:47;101033.34;;;23.37;26.68
63395;BME280;49531;-34.520;150.798;2023-07-31T04:03:14;101040.19;;;23.40;26.71
63395;BME280;49531;-34.520;150.798;2023-07-31T04:05:41;101024.91;;;23.39;26.42
63395;BME280;49531;-34.520;150.798;2023-07-31T04:08:08;101029.00;;;23.36;26.87
63395;BME280;49531;-34.520;150.798;2023-07-31T04:10:35;101035.28;;;23.42;26.90
63395;BME280;49531;-34.520;150.798;2023-07-31T04:13:02;101036.09;;;23.47;26.54
63395;BME280;49531;-34.520;150.798;2023-07-31T04:15:30;101021.91;;;23.40;26.56
63395;BME280;49531;-34.520;150.798;2023-07-31T04:17:57;101031.47;;;23.43;26.25
63395;BME280;49531;-34.520;150.798;2023-07-31T04:20:24;101027.09;;;23.37;26.20
63395;BME280;49531;-34.520;150.798;2023-07-31T04:22:51;101034.19;;;23.38;25.85
63395;BME280;49531;-34.520;150.798;2023-07-31T04:25:18;101027.38;;;23.40;25.48
63395;BME280;49531;-34.520;150.798;2023-07-31T04:27:45;101025.44;;;23.36;25.84
63395;BME280;49531;-34.520;150.798;2023-07-31T04:30:12;101021.91;;;23.40;25.43
63395;BME280;49531;-34.520;150.798;2023-07-31T04:32:39;101028.47;;;23.44;25.86
63395;BME280;49531;-34.520;150.798;2023-07-31T04:35:06;101031.47;;;23.43;25.36
63395;BME280;49531;-34.520;150.798;2023-07-31T04:37:34;101031.19;;;23.34;25.30
63395;BME280;49531;-34.520;150.798;2023-07-31T04:40:01;101031.72;;;23.31;24.92
63395;BME280;49531;-34.520;150.798;2023-07-31T04:42:28;101027.63;;;23.44;25.49
63395;BME280;49531;-34.520;150.798;2023-07-31T04:44:56;101030.91;;;23.46;25.93
63395;BME280;49531;-34.520;150.798;2023-07-31T04:47:23;101044.00;;;23.44;25.82
63395;BME280;49531;-34.520;150.798;2023-07-31T04:49:50;101045.91;;;23.48;26.16
63395;BME280;49531;-34.520;150.798;2023-07-31T04:52:17;101040.72;;;23.52;25.81
63395;BME280;49531;-34.520;150.798;2023-07-31T04:54:44;101037.72;;;23.48;25.36
63395;BME280;49531;-34.520;150.798;2023-07-31T04:57:11;101028.72;;;23.48;25.61
63395;BME280;49531;-34.520;150.798;2023-07-31T04:59:38;101035.56;;;23.50;25.88
63395;BME280;49531;-34.520;150.798;2023-07-31T05:02:06;101033.13;;;23.54;25.60
63395;BME280;49531;-34.520;150.798;2023-07-31T05:04:34;101029.81;;;23.47;25.75
63395;BME280;49531;-34.520;150.798;2023-07-31T05:07:01;101030.09;;;23.45;25.63
63395;BME280;49531;-34.520;150.798;2023-07-31T05:09:28;101024.66;;;23.45;26.00
63395;BME280;49531;-34.520;150.798;2023-07-31T05:11:55;101035.28;;;23.52;25.62
63395;BME280;49531;-34.520;150.798;2023-07-31T05:14:22;101038.59;;;23.54;25.58
63395;BME280;49531;-34.520;150.798;2023-07-31T05:16:49;101042.41;;;23.53;25.70
63395;BME280;49531;-34.520;150.798;2023-07-31T05:19:16;101032.81;;;23.50;26.16
63395;BME280;49531;-34.520;150.798;2023-07-31T05:21:43;101039.41;;;23.54;25.52
63395;BME280;49531;-34.520;150.798;2023-07-31T05:24:10;101046.19;;;23.52;25.23
63395;BME280;49531;-34.520;150.798;2023-07-31T05:26:37;101039.41;;;23.54;25.42
63395;BME280;49531;-34.520;150.798;2023-07-31T05:29:04;101035.53;;;23.45;25.08
63395;BME280;49531;-34.520;150.798;2023-07-31T05:31:31;101038.28;;;23.50;24.95
63395;BME280;49531;-34.520;150.798;2023-07-31T05:33:58;101042.91;;;23.50;24.88
63395;BME280;49531;-34.520;150.798;2023-07-31T05:36:25;101048.09;;;23.51;24.38
63395;BME280;49531;-34.520;150.798;2023-07-31T05:38:52;101041.81;;;23.51;24.54
63395;BME280;49531;-34.520;150.798;2023-07-31T05:41:19;101043.72;;;23.50;24.67
63395;BME280;49531;-34.520;150.798;2023-07-31T05:43:47;101047.84;;;23.53;25.04
63395;BME280;49531;-34.520;150.798;2023-07-31T05:46:14;101046.19;;;23.47;24.82
63395;BME280;49531;-34.520;150.798;2023-07-31T05:48:41;101047.00;;;23.47;25.28
63395;BME280;49531;-34.520;150.798;2023-07-31T05:51:09;101045.63;;;23.45;25.73
63395;BME280;49531;-34.520;150.798;2023-07-31T05:53:36;101044.00;;;23.44;26.21
63395;BME280;49531;-34.520;150.798;2023-07-31T05:56:06;101058.16;;;23.41;26.07
63395;BME280;49531;-34.520;150.798;2023-07-31T05:58:34;101056.53;;;23.40;26.36
63395;BME280;49531;-34.520;150.798;2023-07-31T06:01:01;101067.72;;;23.38;26.08
63395;BME280;49531;-34.520;150.798;2023-07-31T06:03:28;101067.72;;;23.38;26.75
63395;BME280;49531;-34.520;150.798;2023-07-31T06:05:55;101064.69;;;23.35;27.41
63395;BME280;49531;-34.520;150.798;2023-07-31T06:08:22;101064.16;;;23.27;27.75
63395;BME280;49531;-34.520;150.798;2023-07-31T06:10:49;101069.34;;;23.34;28.16
63395;BME280;49531;-34.520;150.798;2023-07-31T06:13:16;101067.97;;;23.32;28.68
63395;BME280;49531;-34.520;150.798;2023-07-31T06:15:46;101068.50;;;23.28;28.92
63395;BME280;49531;-34.520;150.798;2023-07-31T06:18:13;101075.59;;;23.29;29.11
63395;BME280;49531;-34.520;150.798;2023-07-31T06:20:40;101088.13;;;23.31;29.33
63395;BME280;49531;-34.520;150.798;2023-07-31T06:23:08;101081.59;;;23.32;28.98
63395;BME280;49531;-34.520;150.798;2023-07-31T06:25:35;101083.78;;;23.29;28.76
63395;BME280;49531;-34.520;150.798;2023-07-31T06:28:02;101090.03;;;23.30;28.52
63395;BME280;49531;-34.520;150.798;2023-07-31T06:30:29;101095.22;;;23.26;28.64
63395;BME280;49531;-34.520;150.798;2023-07-31T06:32:56;101091.66;;;23.26;28.07
63395;BME280;49531;-34.520;150.798;2023-07-31T06:35:23;101096.84;;;23.27;27.34
63395;BME280;49531;-34.520;150.798;2023-07-31T06:37:51;101100.69;;;23.32;26.51
63395;BME280;49531;-34.520;150.798;2023-07-31T06:40:21;101097.94;;;23.32;27.26
63395;BME280;49531;-34.520;150.798;2023-07-31T06:42:53;101097.94;;;23.26;27.34
63395;BME280;49531;-34.520;150.798;2023-07-31T06:45:20;101106.13;;;23.26;27.16
63395;BME280;49531;-34.520;150.798;2023-07-31T06:47:49;101103.94;;;23.28;27.24
63395;BME280;49531;-34.520;150.798;2023-07-31T06:50:16;101104.50;;;23.31;26.31
63395;BME280;49531;-34.520;150.798;2023-07-31T06:52:44;101114.84;;;23.28;26.92
63395;BME280;49531;-34.520;150.798;2023-07-31T06:55:19;101120.56;;;23.27;27.38
63395;BME280;49531;-34.520;150.798;2023-07-31T06:57:47;101128.47;;;23.23;27.11
63395;BME280;49531;-34.520;150.798;2023-07-31T07:00:14;101122.19;;;23.28;27.38
63395;BME280;49531;-34.520;150.798;2023-07-31T07:02:42;101132.56;;;23.26;27.18
63395;BME280;49531;-34.520;150.798;2023-07-31T07:05:09;101138.56;;;23.18;27.24
63395;BME280;49531;-34.520;150.798;2023-07-31T07:07:36;101135.28;;;23.16;27.28
63395;BME280;49531;-34.520;150.798;2023-07-31T07:10:04;101147.00;;;23.16;27.50
63395;BME280;49531;-34.520;150.798;2023-07-31T07:12:32;101141.28;;;23.18;27.00
63395;BME280;49531;-34.520;150.798;2023-07-31T07:15:00;101139.06;;;23.10;25.97
63395;BME280;49531;-34.520;150.798;2023-07-31T07:17:28;101145.00;;;22.97;26.22
63395;BME280;49531;-34.520;150.798;2023-07-31T07:19:58;101149.34;;;22.92;26.16
63395;BME280;49531;-34.520;150.798;2023-07-31T07:22:25;101158.34;;;22.93;26.47
63395;BME280;49531;-34.520;150.798;2023-07-31T07:24:55;101159.72;;;22.95;26.96
63395;BME280;49531;-34.520;150.798;2023-07-31T07:27:23;101151.81;;;22.94;26.23
63395;BME280;49531;-34.520;150.798;2023-07-31T07:29:51;101164.84;;;22.87;26.70
63395;BME280;49531;-34.520;150.798;2023-07-31T07:32:20;101160.78;;;22.89;27.08
63395;BME280;49531;-34.520;150.798;2023-07-31T07:35:06;101159.16;;;22.93;26.84
63395;BME280;49531;-34.520;150.798;2023-07-31T07:37:33;101153.72;;;22.93;25.76
63395;BME280;49531;-34.520;150.798;2023-07-31T07:40:00;101179.28;;;22.87;26.90
63395;BME280;49531;-34.520;150.798;2023-07-31T07:42:27;101179.00;;;22.84;27.44
63395;BME280;49531;-34.520;150.798;2023-07-31T07:44:54;101175.22;;;22.90;26.69
63395;BME280;49531;-34.520;150.798;2023-07-31T07:47:21;101181.19;;;22.87;26.65
63395;BME280;49531;-34.520;150.798;2023-07-31T07:49:49;101183.88;;;22.82;26.93
63395;BME280;49531;-34.520;150.798;2023-07-31T07:52:16;101176.75;;;22.76;27.55
63395;BME280;49531;-34.520;150.798;2023-07-31T07:54:44;101189.88;;;22.79;27.33
63395;BME280;49531;-34.520;150.798;2023-07-31T07:57:10;101201.50;;;22.69;27.64
63395;BME280;49531;-34.520;150.798;2023-07-31T07:59:38;101189.19;;;22.61;27.33
63395;BME280;49531;-34.520;150.798;2023-07-31T08:02:05;101188.59;;;22.54;27.77
63395;BME280;49531;-34.520;150.798;2023-07-31T08:04:32;101196.78;;;22.54;27.91
63395;BME280;49531;-34.520;150.798;2023-07-31T08:06:59;101194.09;;;22.59;27.82
63395;BME280;49531;-34.520;150.798;2023-07-31T08:09:26;101212.84;;;22.56;27.85
63395;BME280;49531;-34.520;150.798;2023-07-31T08:11:53;101208.81;;;22.63;27.77
63395;BME280;49531;-34.520;150.798;2023-07-31T08:14:20;101203.84;;;22.55;27.67
63395;BME280;49531;-34.520;150.798;2023-07-31T08:16:47;101217.66;;;22.44;28.32
63395;BME280;49531;-34.520;150.798;2023-07-31T08:19:14;101222.06;;;22.50;27.85
63395;BME280;49531;-34.520;150.798;2023-07-31T08:21:42;101226.63;;;22.44;28.31
63395;BME280;49531;-34.520;150.798;2023-07-31T08:24:09;101227.00;;;22.21;28.73
63395;BME280;49531;-34.520;150.798;2023-07-31T08:26:36;101240.72;;;22.31;28.88
63395;BME280;49531;-34.520;150.798;2023-07-31T08:29:03;101238.97;;;22.20;28.89
63395;BME280;49531;-34.520;150.798;2023-07-31T08:31:30;101237.34;;;22.19;28.88
63395;BME280;49531;-34.520;150.798;2023-07-31T08:33:57;101241.91;;;22.13;29.41
63395;BME280;49531;-34.520;150.798;2023-07-31T08:36:24;101258.50;;;22.12;29.49
63395;BME280;49531;-34.520;150.798;2023-07-31T08:38:51;101255.19;;;22.10;29.68
63395;BME280;49531;-34.520;150.798;2023-07-31T08:41:19;101266.09;;;22.10;29.50
63395;BME280;49531;-34.520;150.798;2023-07-31T08:43:46;101268.13;;;21.98;29.72
63395;BME280;49531;-34.520;150.798;2023-07-31T08:46:14;101259.50;;;21.79;30.14
63395;BME280;49531;-34.520;150.798;2023-07-31T08:48:44;101274.72;;;21.80;30.12
63395;BME280;49531;-34.520;150.798;2023-07-31T08:51:14;101277.00;;;21.88;30.08
63395;BME280;49531;-34.520;150.798;2023-07-31T08:53:42;101273.78;;;21.91;30.19
63395;BME280;49531;-34.520;150.798;2023-07-31T08:56:10;101272.94;;;21.90;30.41
63395;BME280;49531;-34.520;150.798;2023-07-31T08:58:38;101274.59;;;21.91;30.55
63395;BME280;49531;-34.520;150.798;2023-07-31T09:01:07;101271.56;;;21.88;30.67
63395;BME280;49531;-34.520;150.798;2023-07-31T09:03:35;101261.00;;;21.91;30.76
63395;BME280;49531;-34.520;150.798;2023-07-31T09:06:03;101273.53;;;21.92;30.94
63395;BME280;49531;-34.520;150.798;2023-07-31T09:08:32;101272.84;;;21.80;31.49
63395;BME280;49531;-34.520;150.798;2023-07-31T09:11:01;101279.09;;;21.81;31.47
63395;BME280;49531;-34.520;150.798;2023-07-31T09:13:31;101279.75;;;21.66;31.84
63395;BME280;49531;-34.520;150.798;2023-07-31T09:15:59;101274.31;;;21.66;32.18
63395;BME280;49531;-34.520;150.798;2023-07-31T09:18:26;101289.03;;;21.70;32.41
63395;BME280;49531;-34.520;150.798;2023-07-31T09:21:04;101273.16;;;21.62;32.61
63395;BME280;49531;-34.520;150.798;2023-07-31T09:23:43;101291.13;;;21.63;32.64
63395;BME280;49531;-34.520;150.798;2023-07-31T09:26:11;101293.81;;;21.58;32.67
63395;BME280;49531;-34.520;150.798;2023-07-31T09:28:54;101298.03;;;21.49;32.67
63395;BME280;49531;-34.520;150.798;2023-07-31T09:31:33;101291.22;;;21.46;32.57
63395;BME280;49531;-34.520;150.798;2023-07-31T09:34:04;101300.19;;;21.47;32.73
63395;BME280;49531;-34.520;150.798;2023-07-31T09:36:31;101294.75;;;21.47;32.96
63395;BME280;49531;-34.520;150.798;2023-07-31T09:39:03;101298.03;;;21.49;32.82
63395;BME280;49531;-34.520;150.798;2023-07-31T09:41:31;101300.75;;;21.49;33.25
63395;BME280;49531;-34.520;150.798;2023-07-31T09:44:03;101297.47;;;21.47;33.06
63395;BME280;49531;-34.520;150.798;2023-07-31T09:46:31;101296.06;;;21.44;33.05
63395;BME280;49531;-34.520;150.798;2023-07-31T09:49:07;101295.81;;;21.46;33.27
63395;BME280;49531;-34.520;150.798;2023-07-31T09:51:37;101305.31;;;21.43;33.21
63395;BME280;49531;-34.520;150.798;2023-07-31T09:54:10;101287.03;;;21.39;33.46
63395;BME280;49531;-34.520;150.798;2023-07-31T09:56:43;101293.78;;;21.36;33.66
63395;BME280;49531;-34.520;150.798;2023-07-31T09:59:13;101312.25;;;21.34;33.60
63395;BME280;49531;-34.520;150.798;2023-07-31T10:01:42;101311.34;;;21.28;33.69
63395;BME280;49531;-34.520;150.798;2023-07-31T10:04:12;101315.97;;;21.28;33.77
63395;BME280;49531;-34.520;150.798;2023-07-31T10:06:40;101323.53;;;21.26;33.85
63395;BME280;49531;-34.520;150.798;2023-07-31T10:09:11;101336.06;;;21.27;33.91
63395;BME280;49531;-34.520;150.798;2023-07-31T10:11:42;101322.47;;;21.27;33.72
63395;BME280;49531;-34.520;150.798;2023-07-31T10:14:11;101333.25;;;21.22;34.03
63395;BME280;49531;-34.520;150.798;2023-07-31T10:16:39;101323.69;;;21.19;34.09
63395;BME280;49531;-34.520;150.798;2023-07-31T10:19:07;101328.56;;;21.17;33.98
63395;BME280;49531;-34.520;150.798;2023-07-31T10:21:34;101341.09;;;21.18;34.17
63395;BME280;49531;-34.520;150.798;2023-07-31T10:24:05;101332.84;;;21.13;34.10
63395;BME280;49531;-34.520;150.798;2023-07-31T10:26:32;101335.00;;;21.11;34.28
63395;BME280;49531;-34.520;150.798;2023-07-31T10:29:00;101333.84;;;21.07;34.29
63395;BME280;49531;-34.520;150.798;2023-07-31T10:31:28;101342.81;;;21.08;34.27
63395;BME280;49531;-34.520;150.798;2023-07-31T10:33:57;101346.84;;;21.05;34.35
63395;BME280;49531;-34.520;150.798;2023-07-31T10:36:25;101343.00;;;21.01;34.33
63395;BME280;49531;-34.520;150.798;2023-07-31T10:38:54;101345.69;;;21.01;34.38
63395;BME280;49531;-34.520;150.798;2023-07-31T10:41:33;101341.00;;;20.96;34.42
63395;BME280;49531;-34.520;150.798;2023-07-31T10:44:03;101346.13;;;20.93;34.61
63395;BME280;49531;-34.520;150.798;2023-07-31T10:46:33;101337.06;;;20.87;34.69
63395;BME280;49531;-34.520;150.798;2023-07-31T10:49:01;101341.66;;;20.87;34.50
63395;BME280;49531;-34.520;150.798;2023-07-31T10:51:34;101340.84;;;20.86;34.64
63395;BME280;49531;-34.520;150.798;2023-07-31T10:54:13;101355.50;;;20.85;34.46
63395;BME280;49531;-34.520;150.798;2023-07-31T10:56:45;101348.09;;;20.81;34.71
63395;BME280;49531;-34.520;150.798;2023-07-31T10:59:13;101345.56;;;20.74;34.68
63395;BME280;49531;-34.520;150.798;2023-07-31T11:01:54;101354.19;;;20.71;34.73
63395;BME280;49531;-34.520;150.798;2023-07-31T11:04:25;101361.28;;;20.72;34.58
63395;BME280;49531;-34.520;150.798;2023-07-31T11:06:57;101360.44;;;20.72;34.66
63395;BME280;49531;-34.520;150.798;2023-07-31T11:09:29;101368.34;;;20.73;34.73
63395;BME280;49531;-34.520;150.798;2023-07-31T11:11:57;101375.66;;;20.73;34.57
63395;BME280;49531;-34.520;150.798;2023-07-31T11:14:24;101387.25;;;20.68;34.55
63395;BME280;49531;-34.520;150.798;2023-07-31T11:16:51;101387.75;;;20.65;34.52
63395;BME280;49531;-34.520;150.798;2023-07-31T11:19:24;101384.22;;;20.64;34.61
63395;BME280;49531;-34.520;150.798;2023-07-31T11:21:52;101390.22;;;20.67;34.49
63395;BME280;49531;-34.520;150.798;2023-07-31T11:24:20;101394.00;;;20.66;34.73
63395;BME280;49531;-34.520;150.798;2023-07-31T11:26:52;101384.69;;;20.61;34.45
63395;BME280;49531;-34.520;150.798;2023-07-31T11:29:20;101399.91;;;20.62;34.23
63395;BME280;49531;-34.520;150.798;2023-07-31T11:31:47;101390.94;;;20.62;34.49
63395;BME280;49531;-34.520;150.798;2023-07-31T11:34:15;101397.34;;;20.56;34.60
63395;BME280;49531;-34.520;150.798;2023-07-31T11:36:53;101387.72;;;20.48;34.58
63395;BME280;49531;-34.520;150.798;2023-07-31T11:39:21;101390.19;;;20.50;34.59
63395;BME280;49531;-34.520;150.798;2023-07-31T11:41:48;101379.00;;;20.46;34.56
63395;BME280;49531;-34.520;150.798;2023-07-31T11:44:15;101393.13;;;20.48;34.63
63395;BME280;49531;-34.520;150.798;2023-07-31T11:46:43;101383.94;;;20.49;34.46
63395;BME280;49531;-34.520;150.798;2023-07-31T11:49:10;101392.16;;;20.54;34.46
63395;BME280;49531;-34.520;150.798;2023-07-31T11:51:37;101386.41;;;20.51;34.32
63395;BME280;49531;-34.520;150.798;2023-07-31T11:54:04;101386.06;;;20.47;34.48
63395;BME280;49531;-34.520;150.798;2023-07-31T11:56:33;101396.59;;;20.44;34.50
63395;BME280;49531;-34.520;150.798;2023-07-31T11:59:01;101388.69;;;20.42;34.37
63395;BME280;49531;-34.520;150.798;2023-07-31T12:01:30;101395.41;;;20.40;34.60
63395;BME280;49531;-34.520;150.798;2023-07-31T12:03:58;101401.19;;;20.43;34.53
63395;BME280;49531;-34.520;150.798;2023-07-31T12:06:33;101405.47;;;20.39;34.44
63395;BME280;49531;-34.520;150.798;2023-07-31T12:09:03;101400.50;;;20.36;34.54
63395;BME280;49531;-34.520;150.798;2023-07-31T12:11:31;101405.34;;;20.34;34.65
63395;BME280;49531;-34.520;150.798;2023-07-31T12:13:58;101394.72;;;20.33;34.36
63395;BME280;49531;-34.520;150.798;2023-07-31T12:16:26;101394.16;;;20.30;34.48
63395;BME280;49531;-34.520;150.798;2023-07-31T12:18:55;101408.88;;;20.35;34.51
63395;BME280;49531;-34.520;150.798;2023-07-31T12:21:22;101395.78;;;20.31;34.42
63395;BME280;49531;-34.520;150.798;2023-07-31T12:23:49;101391.59;;;20.24;34.65
63395;BME280;49531;-34.520;150.798;2023-07-31T12:26:19;101398.66;;;20.25;34.51
63395;BME280;49531;-34.520;150.798;2023-07-31T12:28:49;101401.84;;;20.22;34.53
63395;BME280;49531;-34.520;150.798;2023-07-31T12:31:19;101387.13;;;20.18;34.44